sensor_id;sensor_type;location;lat;lon;timestamp;P1;durP1;ratioP1;P2;durP2;ratioP2
50433;SDS011;36361;38.954;-9.002;2022-11-20T00:00:09;8.20;;;1.25;;
50433;SDS011;36361;38.954;-9.002;2022-11-20T00:01:11;4.13;;;0.70;;
50433;SDS011;36361;38.954;-9.002;2022-11-20T00:02:13;4.28;;;0.80;;
50433;SDS011;36361;38.954;-9.002;2022-11-20T00:03:14;5.05;;;1.42;;
50433;SDS011;36361;38.954;-9.002;2022-11-20T00:04:15;5.85;;;1.20;;
50433;SDS011;36361;38.954;-9.002;2022-11-20T00:05:18;5.53;;;1.50;;
50433;SDS011;36361;38.954;-9.002;2022-11-20T00:06:21;4.05;;;1.80;;
50433;SDS011;36361;38.954;-9.002;2022-11-20T00:07:23;7.90;;;1.73;;
50433;SDS011;36361;38.954;-9.002;2022-11-20T00:08:24;5.78;;;2.00;;
50433;SDS011;36361;38.954;-9.002;2022-11-20T00:09:24;6.63;;;1.75;;
50433;SDS011;36361;38.954;-9.002;2022-11-20T00:10:25;3.80;;;1.35;;
50433;SDS011;36361;38.954;-9.002;2022-11-20T00:11:27;5.43;;;1.90;;
50433;SDS011;36361;38.954;-9.002;2022-11-20T00:12:29;5.18;;;2.33;;
50433;SDS011;36361;38.954;-9.002;2022-11-20T00:13:29;9.77;;;2.67;;
50433;SDS011;36361;38.954;-9.002;2022-11-20T00:14:31;7.70;;;2.08;;
50433;SDS011;36361;38.954;-9.002;2022-11-20T00:15:31;6.63;;;2.17;;
50433;SDS011;36361;38.954;-9.002;2022-11-20T00:16:32;4.78;;;1.67;;
50433;SDS011;36361;38.954;-9.002;2022-11-20T00:17:33;13.23;;;2.53;;
50433;SDS011;36361;38.954;-9.002;2022-11-20T00:18:34;7.20;;;2.70;;
50433;SDS011;36361;38.954;-9.002;2022-11-20T00:19:35;6.57;;;2.33;;
50433;SDS011;36361;38.954;-9.002;2022-11-20T00:20:36;6.32;;;2.03;;
50433;SDS011;36361;38.954;-9.002;2022-11-20T00:21:36;6.70;;;2.42;;
50433;SDS011;36361;38.954;-9.002;2022-11-20T00:22:37;7.07;;;2.22;;
50433;SDS011;36361;38.954;-9.002;2022-11-20T00:23:38;7.13;;;2.35;;
50433;SDS011;36361;38.954;-9.002;2022-11-20T00:24:38;10.50;;;2.45;;
50433;SDS011;36361;38.954;-9.002;2022-11-20T00:25:39;6.35;;;1.95;;
50433;SDS011;36361;38.954;-9.002;2022-11-20T00:26:40;8.57;;;1.88;;
50433;SDS011;36361;38.954;-9.002;2022-11-20T00:27:40;11.23;;;2.30;;
50433;SDS011;36361;38.954;-9.002;2022-11-20T00:28:41;6.82;;;1.80;;
50433;SDS011;36361;38.954;-9.002;2022-11-20T00:29:44;6.93;;;1.63;;
50433;SDS011;36361;38.954;-9.002;2022-11-20T00:30:44;5.43;;;1.88;;
50433;SDS011;36361;38.954;-9.002;2022-11-20T00:31:45;7.13;;;1.67;;
50433;SDS011;36361;38.954;-9.002;2022-11-20T00:32:46;5.88;;;1.70;;
50433;SDS011;36361;38.954;-9.002;2022-11-20T00:33:49;7.75;;;1.65;;
50433;SDS011;36361;38.954;-9.002;2022-11-20T00:34:53;5.43;;;1.50;;
50433;SDS011;36361;38.954;-9.002;2022-11-20T00:35:53;5.38;;;1.00;;
50433;SDS011;36361;38.954;-9.002;2022-11-20T00:37:00;5.78;;;1.25;;
50433;SDS011;36361;38.954;-9.002;2022-11-20T00:38:00;7.45;;;1.48;;
50433;SDS011;36361;38.954;-9.002;2022-11-20T00:39:01;4.63;;;1.00;;
50433;SDS011;36361;38.954;-9.002;2022-11-20T00:40:02;3.88;;;1.20;;
50433;SDS011;36361;38.954;-9.002;2022-11-20T00:41:09;5.38;;;1.00;;
50433;SDS011;36361;38.954;-9.002;2022-11-20T00:42:11;5.78;;;0.63;;
50433;SDS011;36361;38.954;-9.002;2022-11-20T00:43:12;7.03;;;1.10;;
50433;SDS011;36361;38.954;-9.002;2022-11-20T00:44:16;5.75;;;1.08;;
50433;SDS011;36361;38.954;-9.002;2022-11-20T00:45:17;2.47;;;0.60;;
50433;SDS011;36361;38.954;-9.002;2022-11-20T00:46:18;5.07;;;1.10;;
50433;SDS011;36361;38.954;-9.002;2022-11-20T00:47:23;8.23;;;1.48;;
50433;SDS011;36361;38.954;-9.002;2022-11-20T00:48:26;5.00;;;1.00;;
50433;SDS011;36361;38.954;-9.002;2022-11-20T00:49:28;5.68;;;0.80;;
50433;SDS011;36361;38.954;-9.002;2022-11-20T00:50:31;4.22;;;0.68;;
50433;SDS011;36361;38.954;-9.002;2022-11-20T00:51:35;4.70;;;0.65;;
50433;SDS011;36361;38.954;-9.002;2022-11-20T00:52:36;7.85;;;0.70;;
50433;SDS011;36361;38.954;-9.002;2022-11-20T00:53:36;7.00;;;1.20;;
50433;SDS011;36361;38.954;-9.002;2022-11-20T00:54:37;7.70;;;0.82;;
50433;SDS011;36361;38.954;-9.002;2022-11-20T00:55:37;4.60;;;0.88;;
50433;SDS011;36361;38.954;-9.002;2022-11-20T00:56:38;5.25;;;1.08;;
50433;SDS011;36361;38.954;-9.002;2022-11-20T00:57:40;6.18;;;0.98;;
50433;SDS011;36361;38.954;-9.002;2022-11-20T00:58:41;3.28;;;0.60;;
50433;SDS011;36361;38.954;-9.002;2022-11-20T00:59:43;5.60;;;1.02;;
50433;SDS011;36361;38.954;-9.002;2022-11-20T01:00:44;6.53;;;0.77;;
50433;SDS011;36361;38.954;-9.002;2022-11-20T01:01:44;8.68;;;1.15;;
50433;SDS011;36361;38.954;-9.002;2022-11-20T01:02:45;4.90;;;0.70;;
50433;SDS011;36361;38.954;-9.002;2022-11-20T01:03:46;5.57;;;0.68;;
50433;SDS011;36361;38.954;-9.002;2022-11-20T01:04:48;5.07;;;0.70;;
50433;SDS011;36361;38.954;-9.002;2022-11-20T01:05:49;6.47;;;0.98;;
50433;SDS011;36361;38.954;-9.002;2022-11-20T01:06:50;8.13;;;1.17;;
50433;SDS011;36361;38.954;-9.002;2022-11-20T01:07:50;5.47;;;0.73;;
50433;SDS011;36361;38.954;-9.002;2022-11-20T01:08:52;5.95;;;0.80;;
50433;SDS011;36361;38.954;-9.002;2022-11-20T01:09:54;7.38;;;1.13;;
50433;SDS011;36361;38.954;-9.002;2022-11-20T01:10:58;6.93;;;0.95;;
50433;SDS011;36361;38.954;-9.002;2022-11-20T01:12:03;7.53;;;0.98;;
50433;SDS011;36361;38.954;-9.002;2022-11-20T01:13:04;5.95;;;1.10;;
50433;SDS011;36361;38.954;-9.002;2022-11-20T01:14:23;5.38;;;1.00;;
50433;SDS011;36361;38.954;-9.002;2022-11-20T01:15:24;3.92;;;1.23;;
50433;SDS011;36361;38.954;-9.002;2022-11-20T01:16:26;4.18;;;1.50;;
50433;SDS011;36361;38.954;-9.002;2022-11-20T01:17:30;5.00;;;1.63;;
50433;SDS011;36361;38.954;-9.002;2022-11-20T01:18:31;8.25;;;2.20;;
50433;SDS011;36361;38.954;-9.002;2022-11-20T01:19:32;8.65;;;2.05;;
50433;SDS011;36361;38.954;-9.002;2022-11-20T01:20:36;8.73;;;2.38;;
50433;SDS011;36361;38.954;-9.002;2022-11-20T01:21:38;7.40;;;1.33;;
50433;SDS011;36361;38.954;-9.002;2022-11-20T01:22:40;5.45;;;1.30;;
50433;SDS011;36361;38.954;-9.002;2022-11-20T01:23:41;3.17;;;0.75;;
50433;SDS011;36361;38.954;-9.002;2022-11-20T01:24:43;7.30;;;1.35;;
50433;SDS011;36361;38.954;-9.002;2022-11-20T01:25:44;4.35;;;0.82;;
50433;SDS011;36361;38.954;-9.002;2022-11-20T01:26:48;6.57;;;1.02;;
50433;SDS011;36361;38.954;-9.002;2022-11-20T01:27:50;4.32;;;0.70;;
50433;SDS011;36361;38.954;-9.002;2022-11-20T01:28:51;6.35;;;0.80;;
50433;SDS011;36361;38.954;-9.002;2022-11-20T01:29:52;5.68;;;0.93;;
50433;SDS011;36361;38.954;-9.002;2022-11-20T01:30:53;5.93;;;1.50;;
50433;SDS011;36361;38.954;-9.002;2022-11-20T01:31:55;5.32;;;0.60;;
50433;SDS011;36361;38.954;-9.002;2022-11-20T01:32:55;7.07;;;0.90;;
50433;SDS011;36361;38.954;-9.002;2022-11-20T01:33:59;7.63;;;1.48;;
50433;SDS011;36361;38.954;-9.002;2022-11-20T01:35:05;4.20;;;0.98;;
50433;SDS011;36361;38.954;-9.002;2022-11-20T01:36:06;5.72;;;0.93;;
50433;SDS011;36361;38.954;-9.002;2022-11-20T01:37:07;4.07;;;0.70;;
50433;SDS011;36361;38.954;-9.002;2022-11-20T01:38:08;5.60;;;1.33;;
50433;SDS011;36361;38.954;-9.002;2022-11-20T01:39:27;4.97;;;0.70;;
50433;SDS011;36361;38.954;-9.002;2022-11-20T01:40:28;3.72;;;0.70;;
50433;SDS011;36361;38.954;-9.002;2022-11-20T01:41:29;4.28;;;0.73;;
50433;SDS011;36361;38.954;-9.002;2022-11-20T01:42:52;8.60;;;0.85;;
50433;SDS011;36361;38.954;-9.002;2022-11-20T01:44:48;5.07;;;0.80;;
50433;SDS011;36361;38.954;-9.002;2022-11-20T01:47:04;3.05;;;0.68;;
50433;SDS011;36361;38.954;-9.002;2022-11-20T01:48:07;3.38;;;0.90;;
50433;SDS011;36361;38.954;-9.002;2022-11-20T01:49:15;3.53;;;0.98;;
50433;SDS011;36361;38.954;-9.002;2022-11-20T01:50:24;6.60;;;0.98;;
50433;SDS011;36361;38.954;-9.002;2022-11-20T01:51:33;6.28;;;0.93;;
50433;SDS011;36361;38.954;-9.002;2022-11-20T01:53:01;7.10;;;1.45;;
50433;SDS011;36361;38.954;-9.002;2022-11-20T01:54:06;5.20;;;0.85;;
50433;SDS011;36361;38.954;-9.002;2022-11-20T01:55:15;6.55;;;1.10;;
50433;SDS011;36361;38.954;-9.002;2022-11-20T01:56:19;8.07;;;1.55;;
50433;SDS011;36361;38.954;-9.002;2022-11-20T01:57:21;5.38;;;1.02;;
50433;SDS011;36361;38.954;-9.002;2022-11-20T01:58:30;6.25;;;1.30;;
50433;SDS011;36361;38.954;-9.002;2022-11-20T01:59:35;6.65;;;1.17;;
50433;SDS011;36361;38.954;-9.002;2022-11-20T02:00:39;5.65;;;0.85;;
50433;SDS011;36361;38.954;-9.002;2022-11-20T02:01:40;5.10;;;1.27;;
50433;SDS011;36361;38.954;-9.002;2022-11-20T02:02:42;9.80;;;1.70;;
50433;SDS011;36361;38.954;-9.002;2022-11-20T02:03:46;4.03;;;0.77;;
50433;SDS011;36361;38.954;-9.002;2022-11-20T02:04:49;3.05;;;0.98;;
50433;SDS011;36361;38.954;-9.002;2022-11-20T02:06:01;6.50;;;1.23;;
50433;SDS011;36361;38.954;-9.002;2022-11-20T02:07:11;6.72;;;1.30;;
50433;SDS011;36361;38.954;-9.002;2022-11-20T02:08:13;3.55;;;0.75;;
50433;SDS011;36361;38.954;-9.002;2022-11-20T02:09:15;6.55;;;1.02;;
50433;SDS011;36361;38.954;-9.002;2022-11-20T02:10:16;6.70;;;0.80;;
50433;SDS011;36361;38.954;-9.002;2022-11-20T02:11:17;4.63;;;0.80;;
50433;SDS011;36361;38.954;-9.002;2022-11-20T02:12:17;3.85;;;1.25;;
50433;SDS011;36361;38.954;-9.002;2022-11-20T02:13:37;4.90;;;0.95;;
50433;SDS011;36361;38.954;-9.002;2022-11-20T02:14:43;6.50;;;1.17;;
50433;SDS011;36361;38.954;-9.002;2022-11-20T02:15:44;3.45;;;0.70;;
50433;SDS011;36361;38.954;-9.002;2022-11-20T02:16:46;9.70;;;1.77;;
50433;SDS011;36361;38.954;-9.002;2022-11-20T02:17:48;3.70;;;0.70;;
50433;SDS011;36361;38.954;-9.002;2022-11-20T02:18:50;4.75;;;1.05;;
50433;SDS011;36361;38.954;-9.002;2022-11-20T02:19:51;8.70;;;1.33;;
50433;SDS011;36361;38.954;-9.002;2022-11-20T02:21:06;6.68;;;0.98;;
50433;SDS011;36361;38.954;-9.002;2022-11-20T02:22:21;7.00;;;1.30;;
50433;SDS011;36361;38.954;-9.002;2022-11-20T02:25:13;5.63;;;0.70;;
50433;SDS011;36361;38.954;-9.002;2022-11-20T02:26:15;6.03;;;0.80;;
50433;SDS011;36361;38.954;-9.002;2022-11-20T02:27:17;3.95;;;1.00;;
50433;SDS011;36361;38.954;-9.002;2022-11-20T02:28:18;6.80;;;0.70;;
50433;SDS011;36361;38.954;-9.002;2022-11-20T02:29:23;10.00;;;1.45;;
50433;SDS011;36361;38.954;-9.002;2022-11-20T02:30:27;10.70;;;1.10;;
50433;SDS011;36361;38.954;-9.002;2022-11-20T02:31:27;8.35;;;1.02;;
50433;SDS011;36361;38.954;-9.002;2022-11-20T02:32:32;4.28;;;0.98;;
50433;SDS011;36361;38.954;-9.002;2022-11-20T02:33:35;5.88;;;0.57;;
50433;SDS011;36361;38.954;-9.002;2022-11-20T02:34:35;8.02;;;1.05;;
50433;SDS011;36361;38.954;-9.002;2022-11-20T02:35:40;5.30;;;0.50;;
50433;SDS011;36361;38.954;-9.002;2022-11-20T02:37:47;7.18;;;0.73;;
50433;SDS011;36361;38.954;-9.002;2022-11-20T02:38:49;3.78;;;0.50;;
50433;SDS011;36361;38.954;-9.002;2022-11-20T02:39:51;6.95;;;1.10;;
50433;SDS011;36361;38.954;-9.002;2022-11-20T02:40:52;6.18;;;0.82;;
50433;SDS011;36361;38.954;-9.002;2022-11-20T02:41:53;6.22;;;0.80;;
50433;SDS011;36361;38.954;-9.002;2022-11-20T02:42:55;7.95;;;1.23;;
50433;SDS011;36361;38.954;-9.002;2022-11-20T02:43:57;7.43;;;1.00;;
50433;SDS011;36361;38.954;-9.002;2022-11-20T02:44:57;8.68;;;1.08;;
50433;SDS011;36361;38.954;-9.002;2022-11-20T02:45:58;5.32;;;0.80;;
50433;SDS011;36361;38.954;-9.002;2022-11-20T02:46:59;7.95;;;1.80;;
50433;SDS011;36361;38.954;-9.002;2022-11-20T02:48:00;8.27;;;0.90;;
50433;SDS011;36361;38.954;-9.002;2022-11-20T02:49:01;7.25;;;0.93;;
50433;SDS011;36361;38.954;-9.002;2022-11-20T02:50:03;5.00;;;0.70;;
50433;SDS011;36361;38.954;-9.002;2022-11-20T02:51:05;5.40;;;0.95;;
50433;SDS011;36361;38.954;-9.002;2022-11-20T02:52:05;4.88;;;0.80;;
50433;SDS011;36361;38.954;-9.002;2022-11-20T02:53:06;5.68;;;0.90;;
50433;SDS011;36361;38.954;-9.002;2022-11-20T02:54:07;7.28;;;0.80;;
50433;SDS011;36361;38.954;-9.002;2022-11-20T02:55:08;5.07;;;1.13;;
50433;SDS011;36361;38.954;-9.002;2022-11-20T02:56:09;6.88;;;0.93;;
50433;SDS011;36361;38.954;-9.002;2022-11-20T02:57:10;5.70;;;1.00;;
50433;SDS011;36361;38.954;-9.002;2022-11-20T02:58:11;7.47;;;1.35;;
50433;SDS011;36361;38.954;-9.002;2022-11-20T02:59:11;5.05;;;0.90;;
50433;SDS011;36361;38.954;-9.002;2022-11-20T03:00:13;6.50;;;0.80;;
50433;SDS011;36361;38.954;-9.002;2022-11-20T03:01:14;5.72;;;0.50;;
50433;SDS011;36361;38.954;-9.002;2022-11-20T03:02:14;5.93;;;0.70;;
50433;SDS011;36361;38.954;-9.002;2022-11-20T03:03:15;6.65;;;0.68;;
50433;SDS011;36361;38.954;-9.002;2022-11-20T03:04:16;4.50;;;1.05;;
50433;SDS011;36361;38.954;-9.002;2022-11-20T03:05:16;9.43;;;0.93;;
50433;SDS011;36361;38.954;-9.002;2022-11-20T03:06:17;5.60;;;1.23;;
50433;SDS011;36361;38.954;-9.002;2022-11-20T03:07:18;8.95;;;1.40;;
50433;SDS011;36361;38.954;-9.002;2022-11-20T03:08:19;7.32;;;0.80;;
50433;SDS011;36361;38.954;-9.002;2022-11-20T03:09:20;6.57;;;1.08;;
50433;SDS011;36361;38.954;-9.002;2022-11-20T03:10:20;8.00;;;1.15;;
50433;SDS011;36361;38.954;-9.002;2022-11-20T03:11:21;9.55;;;1.17;;
50433;SDS011;36361;38.954;-9.002;2022-11-20T03:12:22;11.07;;;1.23;;
50433;SDS011;36361;38.954;-9.002;2022-11-20T03:13:22;9.30;;;1.23;;
50433;SDS011;36361;38.954;-9.002;2022-11-20T03:14:25;7.25;;;1.50;;
50433;SDS011;36361;38.954;-9.002;2022-11-20T03:15:25;9.50;;;1.13;;
50433;SDS011;36361;38.954;-9.002;2022-11-20T03:16:26;8.20;;;1.27;;
50433;SDS011;36361;38.954;-9.002;2022-11-20T03:17:26;6.65;;;0.90;;
50433;SDS011;36361;38.954;-9.002;2022-11-20T03:18:28;11.15;;;1.38;;
50433;SDS011;36361;38.954;-9.002;2022-11-20T03:19:29;5.68;;;1.30;;
50433;SDS011;36361;38.954;-9.002;2022-11-20T03:20:30;9.07;;;1.40;;
50433;SDS011;36361;38.954;-9.002;2022-11-20T03:21:34;10.10;;;1.30;;
50433;SDS011;36361;38.954;-9.002;2022-11-20T03:22:35;9.98;;;1.10;;
50433;SDS011;36361;38.954;-9.002;2022-11-20T03:23:36;7.72;;;1.58;;
50433;SDS011;36361;38.954;-9.002;2022-11-20T03:24:37;10.32;;;1.17;;
50433;SDS011;36361;38.954;-9.002;2022-11-20T03:25:38;10.70;;;1.70;;
50433;SDS011;36361;38.954;-9.002;2022-11-20T03:26:38;6.78;;;1.17;;
50433;SDS011;36361;38.954;-9.002;2022-11-20T03:27:39;7.97;;;1.38;;
50433;SDS011;36361;38.954;-9.002;2022-11-20T03:28:40;10.95;;;1.38;;
50433;SDS011;36361;38.954;-9.002;2022-11-20T03:29:42;6.93;;;1.15;;
50433;SDS011;36361;38.954;-9.002;2022-11-20T03:30:43;4.55;;;0.85;;
50433;SDS011;36361;38.954;-9.002;2022-11-20T03:31:43;8.73;;;1.20;;
50433;SDS011;36361;38.954;-9.002;2022-11-20T03:32:45;5.95;;;0.80;;
50433;SDS011;36361;38.954;-9.002;2022-11-20T03:33:46;7.80;;;1.17;;
50433;SDS011;36361;38.954;-9.002;2022-11-20T03:34:47;8.68;;;1.10;;
50433;SDS011;36361;38.954;-9.002;2022-11-20T03:35:48;6.30;;;1.42;;
50433;SDS011;36361;38.954;-9.002;2022-11-20T03:36:48;8.68;;;0.82;;
50433;SDS011;36361;38.954;-9.002;2022-11-20T03:37:49;5.13;;;1.05;;
50433;SDS011;36361;38.954;-9.002;2022-11-20T03:38:50;6.82;;;1.02;;
50433;SDS011;36361;38.954;-9.002;2022-11-20T03:39:51;4.35;;;0.70;;
50433;SDS011;36361;38.954;-9.002;2022-11-20T03:40:57;5.05;;;0.57;;
50433;SDS011;36361;38.954;-9.002;2022-11-20T03:41:59;6.22;;;0.70;;
50433;SDS011;36361;38.954;-9.002;2022-11-20T03:42:59;8.25;;;0.85;;
50433;SDS011;36361;38.954;-9.002;2022-11-20T03:44:01;7.88;;;1.15;;
50433;SDS011;36361;38.954;-9.002;2022-11-20T03:45:03;4.85;;;0.75;;
50433;SDS011;36361;38.954;-9.002;2022-11-20T03:46:04;7.50;;;1.08;;
50433;SDS011;36361;38.954;-9.002;2022-11-20T03:47:09;4.15;;;0.70;;
50433;SDS011;36361;38.954;-9.002;2022-11-20T03:48:12;8.48;;;0.98;;
50433;SDS011;36361;38.954;-9.002;2022-11-20T03:49:13;9.43;;;1.20;;
50433;SDS011;36361;38.954;-9.002;2022-11-20T03:50:14;6.38;;;1.00;;
50433;SDS011;36361;38.954;-9.002;2022-11-20T03:51:16;3.67;;;0.73;;
50433;SDS011;36361;38.954;-9.002;2022-11-20T03:52:21;6.32;;;1.00;;
50433;SDS011;36361;38.954;-9.002;2022-11-20T03:53:21;7.80;;;1.27;;
50433;SDS011;36361;38.954;-9.002;2022-11-20T03:54:22;6.68;;;0.95;;
50433;SDS011;36361;38.954;-9.002;2022-11-20T03:55:23;5.63;;;1.10;;
50433;SDS011;36361;38.954;-9.002;2022-11-20T03:56:25;4.38;;;0.82;;
50433;SDS011;36361;38.954;-9.002;2022-11-20T03:57:27;7.63;;;0.93;;
50433;SDS011;36361;38.954;-9.002;2022-11-20T03:58:28;4.00;;;0.75;;
50433;SDS011;36361;38.954;-9.002;2022-11-20T03:59:28;4.38;;;0.70;;
50433;SDS011;36361;38.954;-9.002;2022-11-20T04:00:29;6.47;;;0.90;;
50433;SDS011;36361;38.954;-9.002;2022-11-20T04:01:34;8.55;;;0.93;;
50433;SDS011;36361;38.954;-9.002;2022-11-20T04:02:37;5.30;;;0.60;;
50433;SDS011;36361;38.954;-9.002;2022-11-20T04:03:38;7.95;;;1.40;;
50433;SDS011;36361;38.954;-9.002;2022-11-20T04:04:39;6.10;;;1.00;;
50433;SDS011;36361;38.954;-9.002;2022-11-20T04:05:40;9.60;;;1.38;;
50433;SDS011;36361;38.954;-9.002;2022-11-20T04:06:41;6.57;;;1.17;;
50433;SDS011;36361;38.954;-9.002;2022-11-20T04:07:41;4.53;;;0.80;;
50433;SDS011;36361;38.954;-9.002;2022-11-20T04:08:42;6.72;;;1.40;;
50433;SDS011;36361;38.954;-9.002;2022-11-20T04:09:43;10.02;;;1.42;;
50433;SDS011;36361;38.954;-9.002;2022-11-20T04:10:43;8.73;;;1.13;;
50433;SDS011;36361;38.954;-9.002;2022-11-20T04:11:44;12.68;;;1.40;;
50433;SDS011;36361;38.954;-9.002;2022-11-20T04:12:45;6.45;;;1.13;;
50433;SDS011;36361;38.954;-9.002;2022-11-20T04:13:46;11.98;;;1.50;;
50433;SDS011;36361;38.954;-9.002;2022-11-20T04:14:49;7.93;;;1.20;;
50433;SDS011;36361;38.954;-9.002;2022-11-20T04:15:49;7.38;;;1.13;;
50433;SDS011;36361;38.954;-9.002;2022-11-20T04:16:50;9.57;;;1.10;;
50433;SDS011;36361;38.954;-9.002;2022-11-20T04:17:51;5.07;;;1.20;;
50433;SDS011;36361;38.954;-9.002;2022-11-20T04:18:55;7.07;;;1.33;;
50433;SDS011;36361;38.954;-9.002;2022-11-20T04:19:57;7.72;;;0.85;;
50433;SDS011;36361;38.954;-9.002;2022-11-20T04:20:58;6.70;;;0.80;;
50433;SDS011;36361;38.954;-9.002;2022-11-20T04:21:59;5.13;;;1.00;;
50433;SDS011;36361;38.954;-9.002;2022-11-20T04:23:00;7.70;;;1.25;;
50433;SDS011;36361;38.954;-9.002;2022-11-20T04:24:01;4.72;;;1.33;;
50433;SDS011;36361;38.954;-9.002;2022-11-20T04:25:02;9.73;;;1.13;;
50433;SDS011;36361;38.954;-9.002;2022-11-20T04:27:04;7.80;;;0.98;;
50433;SDS011;36361;38.954;-9.002;2022-11-20T04:28:08;5.35;;;1.05;;
50433;SDS011;36361;38.954;-9.002;2022-11-20T04:29:10;11.65;;;1.30;;
50433;SDS011;36361;38.954;-9.002;2022-11-20T04:30:12;11.05;;;1.10;;
50433;SDS011;36361;38.954;-9.002;2022-11-20T04:31:14;8.93;;;0.82;;
50433;SDS011;36361;38.954;-9.002;2022-11-20T04:32:25;6.70;;;0.80;;
50433;SDS011;36361;38.954;-9.002;2022-11-20T04:33:29;9.65;;;1.35;;
50433;SDS011;36361;38.954;-9.002;2022-11-20T04:34:30;7.55;;;0.88;;
50433;SDS011;36361;38.954;-9.002;2022-11-20T04:35:33;11.45;;;1.30;;
50433;SDS011;36361;38.954;-9.002;2022-11-20T04:36:35;7.75;;;0.77;;
50433;SDS011;36361;38.954;-9.002;2022-11-20T04:37:42;8.15;;;1.30;;
50433;SDS011;36361;38.954;-9.002;2022-11-20T04:38:43;10.02;;;2.15;;
50433;SDS011;36361;38.954;-9.002;2022-11-20T04:39:44;8.15;;;2.75;;
50433;SDS011;36361;38.954;-9.002;2022-11-20T04:40:45;14.85;;;3.30;;
50433;SDS011;36361;38.954;-9.002;2022-11-20T04:41:45;10.32;;;3.03;;
50433;SDS011;36361;38.954;-9.002;2022-11-20T04:42:46;11.05;;;2.17;;
50433;SDS011;36361;38.954;-9.002;2022-11-20T04:43:47;9.27;;;2.90;;
50433;SDS011;36361;38.954;-9.002;2022-11-20T04:44:49;7.30;;;2.38;;
50433;SDS011;36361;38.954;-9.002;2022-11-20T04:45:51;11.45;;;2.90;;
50433;SDS011;36361;38.954;-9.002;2022-11-20T04:46:52;14.77;;;3.67;;
50433;SDS011;36361;38.954;-9.002;2022-11-20T04:47:52;11.65;;;3.63;;
50433;SDS011;36361;38.954;-9.002;2022-11-20T04:48:53;11.30;;;3.15;;
50433;SDS011;36361;38.954;-9.002;2022-11-20T04:49:54;10.02;;;2.53;;
50433;SDS011;36361;38.954;-9.002;2022-11-20T04:50:55;10.32;;;2.78;;
50433;SDS011;36361;38.954;-9.002;2022-11-20T04:51:55;10.27;;;2.42;;
50433;SDS011;36361;38.954;-9.002;2022-11-20T04:52:56;10.63;;;2.30;;
50433;SDS011;36361;38.954;-9.002;2022-11-20T04:53:57;9.55;;;1.70;;
50433;SDS011;36361;38.954;-9.002;2022-11-20T04:54:57;8.77;;;1.52;;
50433;SDS011;36361;38.954;-9.002;2022-11-20T04:56:02;9.52;;;1.33;;
50433;SDS011;36361;38.954;-9.002;2022-11-20T04:57:04;8.65;;;1.58;;
50433;SDS011;36361;38.954;-9.002;2022-11-20T04:58:05;7.70;;;1.50;;
50433;SDS011;36361;38.954;-9.002;2022-11-20T04:59:05;12.40;;;1.77;;
50433;SDS011;36361;38.954;-9.002;2022-11-20T05:00:06;7.95;;;1.75;;
50433;SDS011;36361;38.954;-9.002;2022-11-20T05:01:15;9.75;;;1.50;;
50433;SDS011;36361;38.954;-9.002;2022-11-20T05:02:16;9.98;;;1.52;;
50433;SDS011;36361;38.954;-9.002;2022-11-20T05:03:17;9.02;;;1.95;;
50433;SDS011;36361;38.954;-9.002;2022-11-20T05:04:18;9.02;;;1.35;;
50433;SDS011;36361;38.954;-9.002;2022-11-20T05:05:19;8.43;;;1.30;;
50433;SDS011;36361;38.954;-9.002;2022-11-20T05:06:20;5.95;;;1.10;;
50433;SDS011;36361;38.954;-9.002;2022-11-20T05:07:21;8.75;;;1.23;;
50433;SDS011;36361;38.954;-9.002;2022-11-20T05:08:22;5.50;;;1.60;;
50433;SDS011;36361;38.954;-9.002;2022-11-20T05:09:22;6.95;;;1.10;;
50433;SDS011;36361;38.954;-9.002;2022-11-20T05:10:24;8.88;;;1.38;;
50433;SDS011;36361;38.954;-9.002;2022-11-20T05:11:25;8.70;;;1.20;;
50433;SDS011;36361;38.954;-9.002;2022-11-20T05:12:26;8.75;;;1.40;;
50433;SDS011;36361;38.954;-9.002;2022-11-20T05:13:26;9.90;;;1.30;;
50433;SDS011;36361;38.954;-9.002;2022-11-20T05:14:27;11.55;;;1.58;;
50433;SDS011;36361;38.954;-9.002;2022-11-20T05:15:28;8.20;;;1.42;;
50433;SDS011;36361;38.954;-9.002;2022-11-20T05:16:28;13.95;;;1.67;;
50433;SDS011;36361;38.954;-9.002;2022-11-20T05:17:29;8.00;;;1.45;;
50433;SDS011;36361;38.954;-9.002;2022-11-20T05:18:33;8.57;;;1.05;;
50433;SDS011;36361;38.954;-9.002;2022-11-20T05:19:35;11.48;;;1.30;;
50433;SDS011;36361;38.954;-9.002;2022-11-20T05:20:35;8.95;;;1.45;;
50433;SDS011;36361;38.954;-9.002;2022-11-20T05:21:36;7.57;;;1.02;;
50433;SDS011;36361;38.954;-9.002;2022-11-20T05:22:37;10.27;;;1.15;;
50433;SDS011;36361;38.954;-9.002;2022-11-20T05:23:41;7.30;;;1.08;;
50433;SDS011;36361;38.954;-9.002;2022-11-20T05:24:41;11.48;;;1.75;;
50433;SDS011;36361;38.954;-9.002;2022-11-20T05:25:45;9.88;;;1.58;;
50433;SDS011;36361;38.954;-9.002;2022-11-20T05:26:46;9.05;;;1.20;;
50433;SDS011;36361;38.954;-9.002;2022-11-20T05:27:47;7.60;;;1.45;;
50433;SDS011;36361;38.954;-9.002;2022-11-20T05:28:50;10.13;;;1.25;;
50433;SDS011;36361;38.954;-9.002;2022-11-20T05:29:51;10.80;;;1.17;;
50433;SDS011;36361;38.954;-9.002;2022-11-20T05:30:52;11.80;;;1.13;;
50433;SDS011;36361;38.954;-9.002;2022-11-20T05:31:53;10.82;;;1.50;;
50433;SDS011;36361;38.954;-9.002;2022-11-20T05:32:54;8.68;;;1.23;;
50433;SDS011;36361;38.954;-9.002;2022-11-20T05:33:55;11.82;;;2.22;;
50433;SDS011;36361;38.954;-9.002;2022-11-20T05:34:57;8.40;;;1.17;;
50433;SDS011;36361;38.954;-9.002;2022-11-20T05:35:58;10.82;;;1.52;;
50433;SDS011;36361;38.954;-9.002;2022-11-20T05:36:59;10.10;;;1.83;;
50433;SDS011;36361;38.954;-9.002;2022-11-20T05:37:59;14.40;;;2.40;;
50433;SDS011;36361;38.954;-9.002;2022-11-20T05:39:00;11.68;;;1.58;;
50433;SDS011;36361;38.954;-9.002;2022-11-20T05:40:01;11.88;;;1.85;;
50433;SDS011;36361;38.954;-9.002;2022-11-20T05:42:10;9.98;;;1.42;;
50433;SDS011;36361;38.954;-9.002;2022-11-20T05:43:31;6.97;;;1.02;;
50433;SDS011;36361;38.954;-9.002;2022-11-20T05:44:33;8.30;;;1.08;;
50433;SDS011;36361;38.954;-9.002;2022-11-20T05:45:36;10.32;;;1.85;;
50433;SDS011;36361;38.954;-9.002;2022-11-20T05:46:37;8.32;;;1.27;;
50433;SDS011;36361;38.954;-9.002;2022-11-20T05:47:37;10.05;;;1.58;;
50433;SDS011;36361;38.954;-9.002;2022-11-20T05:48:39;8.40;;;1.48;;
50433;SDS011;36361;38.954;-9.002;2022-11-20T05:49:40;8.23;;;1.27;;
50433;SDS011;36361;38.954;-9.002;2022-11-20T05:50:41;12.02;;;2.08;;
50433;SDS011;36361;38.954;-9.002;2022-11-20T05:51:42;13.18;;;1.80;;
50433;SDS011;36361;38.954;-9.002;2022-11-20T05:52:42;7.15;;;1.15;;
50433;SDS011;36361;38.954;-9.002;2022-11-20T05:53:43;9.32;;;1.30;;
50433;SDS011;36361;38.954;-9.002;2022-11-20T05:54:44;12.48;;;1.65;;
50433;SDS011;36361;38.954;-9.002;2022-11-20T05:55:45;8.80;;;1.85;;
50433;SDS011;36361;38.954;-9.002;2022-11-20T05:56:45;5.50;;;1.30;;
50433;SDS011;36361;38.954;-9.002;2022-11-20T05:57:46;6.95;;;1.63;;
50433;SDS011;36361;38.954;-9.002;2022-11-20T05:58:47;11.32;;;1.42;;
50433;SDS011;36361;38.954;-9.002;2022-11-20T05:59:48;7.85;;;1.35;;
50433;SDS011;36361;38.954;-9.002;2022-11-20T06:00:52;10.88;;;1.27;;
50433;SDS011;36361;38.954;-9.002;2022-11-20T06:01:52;8.95;;;1.77;;
50433;SDS011;36361;38.954;-9.002;2022-11-20T06:02:53;9.30;;;1.50;;
50433;SDS011;36361;38.954;-9.002;2022-11-20T06:03:54;9.20;;;1.40;;
50433;SDS011;36361;38.954;-9.002;2022-11-20T06:04:58;13.55;;;1.80;;
50433;SDS011;36361;38.954;-9.002;2022-11-20T06:05:59;7.05;;;1.20;;
50433;SDS011;36361;38.954;-9.002;2022-11-20T06:07:01;7.13;;;1.27;;
50433;SDS011;36361;38.954;-9.002;2022-11-20T06:08:02;15.30;;;2.08;;
50433;SDS011;36361;38.954;-9.002;2022-11-20T06:09:02;11.60;;;1.42;;
50433;SDS011;36361;38.954;-9.002;2022-11-20T06:10:03;12.98;;;2.22;;
50433;SDS011;36361;38.954;-9.002;2022-11-20T06:11:07;11.45;;;1.55;;
50433;SDS011;36361;38.954;-9.002;2022-11-20T06:12:09;14.35;;;1.88;;
50433;SDS011;36361;38.954;-9.002;2022-11-20T06:13:10;11.10;;;1.20;;
50433;SDS011;36361;38.954;-9.002;2022-11-20T06:14:11;8.13;;;1.48;;
50433;SDS011;36361;38.954;-9.002;2022-11-20T06:15:12;14.45;;;2.13;;